Time;durP1;ratioP1;P1;durP2;ratioP2;P2;SDS_P1;SDS_P2;PMS_P1;PMS_P2;Temp;Humidity;BMP_temperature;BMP_pressure;BME280_temperature;BME280_humidity;BME280_pressure;Samples;Min_cycle;Max_cycle;Signal;HPM_P1;HPM_P2
2022/12/18 07:06:19;;;;;;;22.60;15.90;;;;;;;-3.88;81.09;102465.66;5310120;27;20756;-71
2022/12/18 07:08:52;;;;;;;18.35;14.50;;;;;;;-3.89;81.27;102464.78;5296262;28;20028;-73
2022/12/18 07:11:24;;;;;;;19.15;14.45;;;;;;;-3.91;81.57;102455.97;5286483;28;20103;-71
2022/12/18 07:13:55;;;;;;;25.40;15.18;;;;;;;-3.89;81.03;102453.09;5280566;28;20050;-71
2022/12/18 07:16:28;;;;;;;19.13;14.80;;;;;;;-3.88;80.89;102446.69;5278819;28;20078;-72
2022/12/18 07:18:59;;;;;;;18.90;14.35;;;;;;;-3.85;81.04;102440.94;5279016;28;20024;-72
2022/12/18 07:21:31;;;;;;;22.65;15.45;;;;;;;-3.84;80.90;102434.50;5278995;28;20108;-72
2022/12/18 07:24:02;;;;;;;21.38;14.95;;;;;;;-3.87;80.98;102426.69;5279607;28;20111;-72
2022/12/18 07:26:33;;;;;;;22.45;15.57;;;;;;;-3.83;80.89;102411.84;5284531;28;20352;-72
2022/12/18 07:29:11;;;;;;;20.75;15.48;;;;;;;-3.76;81.33;102415.59;5299943;28;20027;-72
2022/12/18 07:31:42;;;;;;;21.75;15.85;;;;;;;-3.80;80.87;102403.38;5300340;28;20028;-71
2022/12/18 07:34:14;;;;;;;20.25;15.45;;;;;;;-3.78;80.95;102395.94;5299736;28;20068;-73
2022/12/18 07:36:46;;;;;;;18.88;14.00;;;;;;;-3.78;80.91;102406.78;5285952;28;20040;-72
2022/12/18 07:39:17;;;;;;;22.38;14.55;;;;;;;-3.73;80.87;102401.75;5279346;28;20029;-72
2022/12/18 07:42:30;;;;;;;27.20;18.27;;;;;;;-3.74;80.77;102398.16;5278966;28;20090;-72
2022/12/18 07:44:40;;;;;;;18.70;15.27;;;;;;;-3.72;80.64;102398.00;5279110;28;20369;-72
2022/12/18 07:47:11;;;;;;;21.45;14.90;;;;;;;-3.78;80.94;102388.66;5286013;28;20029;-70
2022/12/18 07:49:42;;;;;;;23.75;16.13;;;;;;;-3.75;80.95;102379.34;5298982;28;20467;-71
2022/12/18 07:52:14;;;;;;;20.55;15.25;;;;;;;-3.72;81.34;102376.31;5295269;28;20029;-72
2022/12/18 07:54:45;;;;;;;21.60;14.40;;;;;;;-3.75;80.80;102380.19;5288207;28;20036;-72
2022/12/18 07:57:17;;;;;;;22.25;16.65;;;;;;;-3.67;81.41;102371.28;5282099;28;20024;-71
2022/12/18 07:59:48;;;;;;;22.73;15.82;;;;;;;-3.68;80.94;102358.75;5289466;28;20052;-71
2022/12/18 08:02:20;;;;;;;27.33;15.45;;;;;;;-3.68;81.00;102363.28;5284521;28;20494;-72
2022/12/18 08:04:51;;;;;;;23.17;15.55;;;;;;;-3.59;80.98;102374.03;5302608;28;20040;-72
2022/12/18 08:07:22;;;;;;;22.83;15.98;;;;;;;-3.63;80.71;102378.09;5319758;28;20044;-71
2022/12/18 08:09:54;;;;;;;28.52;16.48;;;;;;;-3.58;81.31;102386.59;5310141;28;20120;-72
2022/12/18 08:12:25;;;;;;;19.83;14.75;;;;;;;-3.53;81.41;102377.97;5313071;28;20505;-71
2022/12/18 08:14:56;;;;;;;22.42;15.40;;;;;;;-3.58;81.20;102375.75;5300169;28;20035;-72
2022/12/18 08:17:28;;;;;;;25.48;15.25;;;;;;;-3.57;81.80;102366.59;5305300;28;20107;-72
2022/12/18 08:19:59;;;;;;;21.55;15.00;;;;;;;-3.59;81.32;102374.03;5301890;28;20035;-71
2022/12/18 08:22:30;;;;;;;23.23;16.00;;;;;;;-3.59;81.36;102379.47;5294219;28;20075;-71
2022/12/18 08:25:03;;;;;;;21.55;14.50;;;;;;;-3.48;81.71;102382.91;5302209;28;20028;-72
2022/12/18 08:27:34;;;;;;;21.60;14.85;;;;;;;-3.46;81.28;102383.63;5295733;28;20020;-71
2022/12/18 08:30:07;;;;;;;21.67;15.70;;;;;;;-3.38;81.31;102386.38;5282907;28;20056;-70
2022/12/18 08:32:38;;;;;;;23.02;15.27;;;;;;;-3.39;81.05;102374.69;5292199;28;20021;-70
2022/12/18 08:35:11;;;;;;;23.70;15.00;;;;;;;-3.40;81.10;102388.41;5284051;28;20070;-72
2022/12/18 08:37:42;;;;;;;21.55;16.05;;;;;;;-3.36;81.20;102385.22;5286298;28;20055;-71
2022/12/18 08:40:14;;;;;;;22.10;15.95;;;;;;;-3.33;81.13;102384.03;5304454;28;20082;-71
2022/12/18 08:45:35;;;;;;;21.70;14.85;;;;;;;-3.29;80.44;102358.31;5296080;28;20040;-71
2022/12/18 08:48:06;;;;;;;22.27;16.92;;;;;;;-3.24;80.89;102364.09;5284705;28;20048;-72
2022/12/18 08:50:38;;;;;;;23.02;16.35;;;;;;;-3.25;80.57;102351.50;5283053;28;20544;-71
2022/12/18 08:53:09;;;;;;;24.45;16.60;;;;;;;-3.22;80.74;102358.47;5281860;28;20130;-71
2022/12/18 08:55:41;;;;;;;22.48;16.15;;;;;;;-3.18;80.26;102358.00;5298121;28;20107;-72
2022/12/18 08:58:12;;;;;;;23.73;15.38;;;;;;;-3.18;80.55;102362.59;5304592;28;20471;-72
2022/12/18 09:00:44;;;;;;;22.17;16.13;;;;;;;-3.20;80.74;102357.31;5306115;28;20052;-71
2022/12/18 09:03:22;;;;;;;23.77;16.27;;;;;;;-2.98;83.53;102349.63;5301684;28;20030;-71
2022/12/18 09:05:53;;;;;;;22.35;16.40;;;;;;;-3.07;81.40;102346.00;5304634;28;20481;-72
2022/12/18 09:08:25;;;;;;;23.55;16.17;;;;;;;-3.09;81.07;102356.19;5305566;28;20120;-70
2022/12/18 09:10:56;;;;;;;21.30;15.82;;;;;;;-3.08;81.14;102372.31;5287076;28;20025;-71
2022/12/18 09:13:28;;;;;;;22.30;16.00;;;;;;;-2.99;80.69;102380.47;5292353;28;20020;-71
2022/12/18 09:15:59;;;;;;;23.88;18.05;;;;;;;-2.94;80.93;102383.56;5285334;28;20112;-72
2022/12/18 09:18:31;;;;;;;23.40;15.85;;;;;;;-2.93;80.06;102379.84;5296966;28;20062;-71
2022/12/18 09:21:20;;;;;;;25.20;17.00;;;;;;;-2.85;80.45;102378.00;5291131;28;20499;-72
2022/12/18 09:23:54;;;;;;;20.42;14.68;;;;;;;-2.60;83.70;102390.84;5290060;28;20017;-69
2022/12/18 09:26:26;;;;;;;24.70;15.93;;;;;;;-2.69;80.63;102382.63;5289876;28;20023;-69
2022/12/18 09:29:00;;;;;;;24.33;16.42;;;;;;;-2.59;80.35;102377.06;5304451;28;20111;-68
2022/12/18 09:31:31;;;;;;;22.27;16.33;;;;;;;-2.65;79.42;102359.56;5296364;28;20032;-68
2022/12/18 09:34:03;;;;;;;25.20;15.98;;;;;;;-2.67;79.92;102361.59;5291084;28;20042;-68
2022/12/18 09:36:34;;;;;;;30.83;23.30;;;;;;;-2.72;79.31;102347.66;5286953;28;20391;-68
2022/12/18 09:39:05;;;;;;;21.88;16.70;;;;;;;-2.77;79.79;102352.75;5289520;28;20041;-68
2022/12/18 09:41:47;;;;;;;23.55;19.05;;;;;;;-2.59;79.67;102351.78;5283231;28;20024;-69
2022/12/18 09:44:49;;;;;;;24.83;16.40;;;;;;;-2.51;80.11;102357.22;5294892;28;20032;-68
2022/12/18 09:47:37;;;;;;;23.67;16.35;;;;;;;-2.49;79.74;102352.47;5289252;28;20032;-67
2022/12/18 09:50:26;;;;;;;23.20;16.85;;;;;;;-2.49;79.28;102341.63;5303722;28;20028;-69
2022/12/18 09:53:04;;;;;;;22.02;16.67;;;;;;;-2.57;79.65;102331.59;5291289;28;20048;-68
2022/12/18 09:55:47;;;;;;;24.17;16.50;;;;;;;-2.48;80.11;102316.13;5302647;28;20028;-66
2022/12/18 09:58:27;;;;;;;22.88;17.90;;;;;;;-2.49;79.96;102319.88;5294207;28;20028;-68
2022/12/18 10:00:58;;;;;;;24.75;17.58;;;;;;;-2.48;79.46;102336.03;5282269;28;20031;-69
2022/12/18 10:03:29;;;;;;;23.70;15.75;;;;;;;-2.47;80.56;102332.28;5282135;28;20021;-69
2022/12/18 10:06:12;;;;;;;22.95;16.25;;;;;;;-2.45;80.72;102332.97;5303378;28;20052;-69
2022/12/18 10:08:59;;;;;;;23.85;17.63;;;;;;;-2.29;80.32;102332.13;5288358;28;20028;-69
2022/12/18 10:11:47;;;;;;;18.05;14.82;;;;;;;-2.16;79.42;102331.63;5283648;28;20106;-68
2022/12/18 10:14:52;;;;;;;24.08;16.77;;;;;;;-2.12;79.31;102332.13;5294713;28;20059;-69
2022/12/18 10:17:30;;;;;;;20.95;16.58;;;;;;;-2.06;79.05;102336.91;5303818;28;20393;-68
2022/12/18 10:20:38;;;;;;;22.10;16.35;;;;;;;-1.94;78.95;102338.28;5315767;28;20031;-68
2022/12/18 10:23:26;;;;;;;24.25;16.23;;;;;;;-1.97;78.62;102333.16;5282574;28;20025;-69
2022/12/18 10:26:09;;;;;;;21.27;16.23;;;;;;;-1.86;78.75;102324.66;5283098;28;20037;-69
2022/12/18 10:28:41;;;;;;;20.15;16.27;;;;;;;-1.76;78.47;102322.63;5288574;28;20035;-69
2022/12/18 10:31:17;;;;;;;20.75;16.20;;;;;;;-1.70;79.32;102314.78;5288195;28;20028;-69
2022/12/18 10:33:48;;;;;;;22.30;15.23;;;;;;;-1.62;78.91;102310.16;5303346;28;20510;-68
2022/12/18 10:36:20;;;;;;;23.20;15.85;;;;;;;-1.62;78.24;102293.00;5302304;28;20107;-69
2022/12/18 10:38:51;;;;;;;22.48;15.57;;;;;;;-1.55;77.91;102285.84;5289828;28;20387;-69
2022/12/18 10:41:28;;;;;;;20.02;15.40;;;;;;;-1.50;78.10;102290.78;5287966;28;20036;-69
2022/12/18 10:44:28;;;;;;;20.25;16.23;;;;;;;-1.39;77.86;102280.34;5280043;28;20047;-69
2022/12/18 10:47:06;;;;;;;22.98;16.05;;;;;;;-1.36;77.12;102282.69;5278433;28;20131;-68
2022/12/18 10:49:52;;;;;;;20.38;15.65;;;;;;;-1.29;77.27;102276.56;5282948;28;20025;-69
2022/12/18 10:52:25;;;;;;;;;;;;;;;-1.17;78.85;102276.00;5282436;28;20066;-68
2022/12/18 10:55:03;;;;;;;18.98;14.55;;;;;;;-1.25;77.61;102277.91;5296404;28;19916;-69
2022/12/18 10:57:37;;;;;;;20.98;16.42;;;;;;;-1.17;77.66;102273.28;5299835;28;20035;-69
2022/12/18 11:00:30;;;;;;;19.73;14.98;;;;;;;-1.13;77.08;102257.44;5285489;28;20016;-70
2022/12/18 11:03:02;;;;;;;22.85;14.93;;;;;;;-1.18;77.09;102255.22;5282807;28;20040;-68
2022/12/18 11:05:36;;;;;;;22.13;16.27;;;;;;;-1.14;78.14;102248.41;5285541;28;20428;-69
2022/12/18 11:08:22;;;;;;;21.98;15.15;;;;;;;-1.11;78.21;102252.66;5301462;28;20020;-69
2022/12/18 11:10:53;;;;;;;18.77;13.98;;;;;;;-0.96;78.00;102252.75;5282255;28;20044;-69
2022/12/18 11:13:27;;;;;;;24.67;17.27;;;;;;;-1.07;77.62;102253.13;5298079;28;20446;-69
2022/12/18 11:15:59;;;;;;;22.52;15.10;;;;;;;-1.01;77.46;102253.28;5301853;28;20032;-70
2022/12/18 11:18:35;;;;;;;21.05;16.10;;;;;;;-0.95;77.19;102260.72;5301819;28;20475;-69
2022/12/18 11:21:09;;;;;;;23.40;15.77;;;;;;;-0.96;77.30;102250.88;5301944;28;20028;-69
2022/12/18 11:23:50;;;;;;;19.52;15.98;;;;;;;-0.89;77.55;102251.03;5302747;28;20052;-69
2022/12/18 11:26:34;;;;;;;19.70;15.05;;;;;;;-0.86;77.61;102238.91;5300570;28;20386;-69
2022/12/18 11:29:15;;;;;;;21.95;16.55;;;;;;;-0.84;77.00;102232.25;5303295;28;20024;-69
2022/12/18 11:31:46;;;;;;;19.48;15.52;;;;;;;-0.92;77.71;102227.72;5302522;28;20451;-68
2022/12/18 11:34:36;;;;;;;22.92;15.38;;;;;;;-0.79;77.59;102229.84;5292919;28;20067;-70
2022/12/18 11:37:09;;;;;;;20.27;14.77;;;;;;;-0.79;77.13;102237.16;5296576;28;20094;-69
2022/12/18 11:39:49;;;;;;;19.42;15.05;;;;;;;-0.90;77.58;102233.81;5300520;28;20070;-69
2022/12/18 11:42:27;;;;;;;20.90;15.52;;;;;;;-0.74;78.22;102224.69;5300740;28;20051;-69
2022/12/18 11:45:12;;;;;;;21.95;15.60;;;;;;;-0.71;77.58;102232.50;5283622;28;20058;-69
2022/12/18 11:47:45;;;;;;;20.02;14.77;;;;;;;-0.56;78.74;102224.41;5300268;28;20383;-69
2022/12/18 11:50:29;;;;;;;20.02;15.52;;;;;;;-0.63;78.09;102222.59;5292624;28;20029;-71
2022/12/18 11:53:02;;;;;;;21.35;15.60;;;;;;;-0.69;76.39;102221.41;5288594;28;20028;-69
2022/12/18 11:55:49;;;;;;;19.23;14.55;;;;;;;-0.50;76.84;102220.09;5292968;28;20044;-68
2022/12/18 11:58:53;;;;;;;20.30;15.07;;;;;;;-0.47;77.08;102219.72;5307232;28;20107;-70
2022/12/18 12:01:42;;;;;;;20.27;14.88;;;;;;;-0.41;76.84;102221.69;5296520;28;20025;-69
2022/12/18 12:04:28;;;;;;;22.92;16.30;;;;;;;-0.36;76.68;102211.09;5304725;28;20467;-70
2022/12/18 12:07:07;;;;;;;22.05;15.32;;;;;;;-0.42;76.39;102208.28;5298817;28;20086;-70
2022/12/18 12:10:08;;;;;;;22.33;18.10;;;;;;;-0.53;76.81;102191.31;5304463;28;20078;-69
2022/12/18 12:12:54;;;;;;;20.70;16.73;;;;;;;-0.41;78.12;102182.69;5274798;28;20044;-69
2022/12/18 12:15:56;;;;;;;22.80;15.57;;;;;;;-0.29;77.94;102175.78;5306159;28;20708;-70
2022/12/18 12:18:33;;;;;;;21.10;16.05;;;;;;;-0.31;76.84;102181.41;5306752;28;20348;-70
2022/12/18 12:21:31;;;;;;;21.63;15.68;;;;;;;-0.29;76.78;102184.78;5305493;28;20028;-69
2022/12/18 12:24:14;;;;;;;20.70;15.98;;;;;;;-0.36;76.86;102182.97;5284547;28;20111;-69
2022/12/18 12:27:30;;;;;;;19.92;15.48;;;;;;;-0.23;76.74;102175.00;5306306;28;20067;-70
2022/12/18 12:30:07;;;;;;;25.73;19.45;;;;;;;-0.15;76.48;102155.88;5267972;28;20051;-69
2022/12/18 12:32:48;;;;;;;24.13;16.27;;;;;;;-0.15;76.82;102161.31;5305837;28;20469;-68
2022/12/18 12:35:37;;;;;;;22.58;15.40;;;;;;;-0.05;76.56;102161.91;5293287;28;20036;-69
2022/12/18 12:38:50;;;;;;;24.25;17.08;;;;;;;0.03;76.41;102157.38;5305130;28;20032;-69
2022/12/18 12:44:23;;;;;;;22.77;16.70;;;;;;;0.01;75.68;102151.28;5256723;28;20060;-68
2022/12/18 12:47:00;;;;;;;22.35;16.70;;;;;;;-0.01;75.57;102138.66;5278666;28;20045;-68
2022/12/18 12:49:33;;;;;;;21.85;16.98;;;;;;;0.17;76.95;102129.25;5305805;28;20467;-69
2022/12/18 12:52:12;;;;;;;22.88;15.90;;;;;;;-0.01;77.00;102130.47;5304369;28;20059;-68
2022/12/18 12:54:44;;;;;;;23.40;16.65;;;;;;;0.06;76.37;102135.19;5306049;28;20299;-69
2022/12/18 12:57:30;;;;;;;24.42;16.83;;;;;;;0.15;75.99;102121.25;5296566;28;20020;-69
2022/12/18 13:00:11;;;;;;;25.23;19.98;;;;;;;0.13;75.83;102119.75;5294412;28;20088;-69
2022/12/18 13:02:55;;;;;;;20.50;15.68;;;;;;;0.17;75.30;102116.44;5297701;28;20443;-70
2022/12/18 13:05:48;;;;;;;23.17;16.90;;;;;;;0.26;75.73;102116.34;5287699;28;20040;-69
2022/12/18 13:08:24;;;;;;;23.60;17.30;;;;;;;0.19;74.90;102108.06;5293236;28;20032;-68
2022/12/18 13:13:49;;;;;;;20.40;16.15;;;;;;;0.22;75.95;102100.34;5290587;28;20036;-69
2022/12/18 13:16:23;;;;;;;21.77;16.95;;;;;;;0.16;75.18;102098.38;5286757;28;20034;-70
2022/12/18 13:18:58;;;;;;;21.23;16.05;;;;;;;0.20;74.93;102098.84;5283457;28;20048;-68
2022/12/18 13:21:33;;;;;;;22.83;15.60;;;;;;;0.36;77.18;102101.38;5284327;28;20029;-70
2022/12/18 13:24:27;;;;;;;22.20;16.33;;;;;;;0.38;75.93;102093.84;5301377;28;20032;-69
2022/12/18 13:26:58;;;;;;;20.50;14.98;;;;;;;0.24;75.26;102091.97;5304497;28;20028;-68
2022/12/18 13:29:46;;;;;;;22.42;15.98;;;;;;;0.32;75.58;102097.31;5305007;28;20039;-69
2022/12/18 13:32:25;;;;;;;23.15;16.70;;;;;;;0.26;74.69;102106.28;5300527;28;20072;-69
2022/12/18 13:35:21;;;;;;;19.25;15.48;;;;;;;0.37;74.42;102105.78;5290114;28;20459;-69
2022/12/18 13:37:53;;;;;;;23.02;16.10;;;;;;;0.28;74.16;102098.75;5293684;28;20059;-68
2022/12/18 13:40:40;;;;;;;23.52;17.17;;;;;;;0.33;74.71;102093.56;5291916;28;20115;-68
2022/12/18 13:43:17;;;;;;;21.55;16.65;;;;;;;0.20;75.05;102091.53;5293431;28;20123;-69
2022/12/18 13:46:22;;;;;;;21.60;17.63;;;;;;;0.35;74.44;102091.47;5293183;28;20574;-69
2022/12/18 13:49:13;;;;;;;25.17;17.67;;;;;;;0.28;74.99;102076.94;5297233;28;20076;-69
2022/12/18 13:51:54;;;;;;;24.08;16.50;;;;;;;0.36;74.23;102068.63;5288791;28;20024;-70
2022/12/18 13:54:37;;;;;;;24.52;17.15;;;;;;;0.33;74.42;102074.47;5291079;28;20471;-70
2022/12/18 13:57:29;;;;;;;24.63;17.55;;;;;;;0.38;74.59;102071.13;5288469;28;20047;-70
2022/12/18 14:00:22;;;;;;;24.30;17.02;;;;;;;0.40;75.08;102075.38;5284588;28;20046;-70
2022/12/18 14:02:54;;;;;;;22.80;16.48;;;;;;;0.38;74.87;102072.00;5296270;28;20032;-70
2022/12/18 14:05:35;;;;;;;21.90;16.30;;;;;;;0.43;74.57;102071.41;5291527;28;20049;-70
2022/12/18 14:08:13;;;;;;;22.55;16.63;;;;;;;0.42;74.58;102073.28;5292382;28;20505;-69
2022/12/18 14:10:48;;;;;;;22.83;17.40;;;;;;;0.41;74.63;102060.69;5290618;28;20058;-69
2022/12/18 14:13:27;;;;;;;20.87;16.40;;;;;;;0.40;75.00;102067.19;5294725;28;20677;-69
2022/12/18 14:16:02;;;;;;;24.67;17.38;;;;;;;0.39;73.77;102064.66;5291956;28;20069;-70
2022/12/18 14:18:56;;;;;;;25.27;18.17;;;;;;;0.50;74.68;102071.50;5291308;28;20020;-69
2022/12/18 14:21:29;;;;;;;24.58;17.10;;;;;;;0.39;74.85;102068.22;5292936;28;20028;-68
2022/12/18 14:24:15;;;;;;;22.75;17.67;;;;;;;0.51;74.29;102056.78;5290399;28;20043;-69
2022/12/18 14:26:50;;;;;;;26.58;18.90;;;;;;;0.42;74.23;102054.19;5289006;28;20028;-69
2022/12/18 14:29:30;;;;;;;23.52;17.08;;;;;;;0.43;74.11;102055.91;5290828;28;20024;-69
2022/12/18 14:32:12;;;;;;;27.30;17.77;;;;;;;0.53;74.61;102052.84;5292977;28;20039;-70
2022/12/18 14:34:54;;;;;;;24.58;17.58;;;;;;;0.51;74.62;102052.22;5290972;28;20036;-69
2022/12/18 14:37:27;;;;;;;21.23;16.02;;;;;;;0.44;73.80;102062.19;5292333;28;20471;-69
2022/12/18 14:40:00;;;;;;;21.48;16.63;;;;;;;0.46;73.73;102064.72;5292137;28;20021;-69
2022/12/18 14:42:32;;;;;;;21.33;16.33;;;;;;;0.43;73.86;102053.16;5292297;28;20359;-70
2022/12/18 14:45:42;;;;;;;22.50;16.88;;;;;;;0.52;74.05;102048.44;5292311;28;20036;-70
2022/12/18 14:48:22;;;;;;;22.00;16.38;;;;;;;0.53;73.67;102050.09;5292517;28;20036;-70
2022/12/18 14:50:57;;;;;;;23.83;17.77;;;;;;;0.58;73.68;102061.28;5295109;28;20079;-69
2022/12/18 14:53:39;;;;;;;24.65;18.85;;;;;;;0.60;73.81;102059.22;5292678;28;20062;-70
2022/12/18 14:56:26;;;;;;;21.40;16.85;;;;;;;0.59;74.69;102063.00;5293080;28;20070;-70
2022/12/18 14:59:06;;;;;;;21.90;17.45;;;;;;;0.49;73.75;102070.66;5291028;28;20524;-70
2022/12/18 15:01:56;;;;;;;24.48;17.17;;;;;;;0.48;74.05;102068.94;5289198;28;20369;-69
2022/12/18 15:04:37;;;;;;;26.13;17.45;;;;;;;0.54;73.97;102056.44;5291589;28;20071;-70
2022/12/18 15:07:11;;;;;;;22.80;18.52;;;;;;;0.64;74.55;102046.88;5293197;28;20027;-71
2022/12/18 15:10:13;;;;;;;23.27;16.08;;;;;;;0.62;73.96;102046.22;5293457;28;20100;-71
2022/12/18 15:12:49;;;;;;;26.27;17.75;;;;;;;0.58;74.19;102047.63;5274390;28;20064;-70
2022/12/18 15:15:33;;;;;;;23.52;17.92;;;;;;;0.56;74.56;102046.13;5293715;28;20024;-70
2022/12/18 15:18:07;;;;;;;23.25;17.70;;;;;;;0.51;74.65;102032.22;5291722;28;20032;-70
2022/12/18 15:20:39;;;;;;;25.13;16.80;;;;;;;0.53;74.22;102032.88;5291806;28;20034;-71
2022/12/18 15:23:33;;;;;;;23.70;18.23;;;;;;;0.53;75.13;102027.44;5292410;28;20062;-71
2022/12/18 15:26:10;;;;;;;24.55;17.90;;;;;;;0.55;74.76;102031.66;5291707;28;20024;-69
2022/12/18 15:28:47;;;;;;;24.23;17.73;;;;;;;0.57;73.98;102031.47;5295256;28;20031;-70
2022/12/18 15:31:24;;;;;;;26.17;18.38;;;;;;;0.64;74.44;102032.38;5295117;28;20101;-70
2022/12/18 15:33:55;;;;;;;22.75;17.38;;;;;;;0.60;74.29;102022.88;5294634;28;20028;-70
2022/12/18 15:36:26;;;;;;;24.08;17.10;;;;;;;0.65;73.75;102031.34;5295602;28;20543;-70
2022/12/18 15:38:58;;;;;;;29.83;24.05;;;;;;;0.65;74.42;102026.72;5300572;28;20035;-70
2022/12/18 15:41:32;;;;;;;20.60;15.73;;;;;;;1.18;82.69;102018.16;5293997;28;20395;-72
2022/12/18 15:44:22;;;;;;;20.70;15.68;;;;;;;1.19;82.06;102017.09;5289000;28;20540;-71
2022/12/18 15:46:54;;;;;;;25.38;18.70;;;;;;;0.99;75.86;102016.09;5301370;28;20020;-71
2022/12/18 15:49:28;;;;;;;24.92;16.58;;;;;;;0.93;74.17;102014.16;5306133;28;20031;-72
2022/12/18 15:52:01;;;;;;;21.83;17.10;;;;;;;0.88;73.36;102002.97;5304595;28;20110;-72
2022/12/18 16:00:17;;;;;;;27.50;18.55;;;;;;;0.69;74.12;102005.34;5294141;28;20500;-73
2022/12/18 16:02:48;;;;;;;23.45;18.35;;;;;;;0.79;74.26;102004.97;5306044;28;20147;-73
2022/12/18 16:05:21;;;;;;;21.48;17.30;;;;;;;0.83;74.22;102006.28;5305015;28;20040;-73
2022/12/18 16:07:55;;;;;;;25.52;19.23;;;;;;;0.80;73.25;102004.81;5289804;28;20024;-73
2022/12/18 16:10:27;;;;;;;23.60;18.15;;;;;;;0.76;73.30;102003.50;5285855;28;20387;-73
2022/12/18 16:12:58;;;;;;;23.23;18.25;;;;;;;0.72;73.33;102002.22;5286158;28;20025;-72
2022/12/18 16:15:30;;;;;;;22.75;17.38;;;;;;;0.70;73.92;101995.25;5290291;28;20059;-72
2022/12/18 16:18:01;;;;;;;22.55;16.17;;;;;;;0.72;73.94;101993.19;5304226;28;20055;-73
2022/12/18 16:20:32;;;;;;;23.08;17.50;;;;;;;0.71;74.10;101984.13;5294785;28;20069;-73
2022/12/18 16:23:04;;;;;;;24.98;17.73;;;;;;;0.76;74.32;101972.63;5292757;28;20022;-73
2022/12/18 16:25:35;;;;;;;25.98;19.23;;;;;;;0.74;73.52;101964.63;5291766;28;20091;-73
2022/12/18 16:28:09;;;;;;;25.63;18.33;;;;;;;0.73;74.07;101957.47;5291656;28;20501;-73
2022/12/18 16:30:40;;;;;;;26.63;17.83;;;;;;;0.73;74.03;101952.00;5294326;28;20664;-74
2022/12/18 16:33:12;;;;;;;24.98;18.13;;;;;;;0.65;74.38;101958.44;5293787;28;20031;-73
2022/12/18 16:35:50;;;;;;;24.77;17.35;;;;;;;0.62;73.49;101963.47;5296071;28;20021;-74
